sensor_id;sensor_type;location;lat;lon;timestamp;P1;durP1;ratioP1;P2;durP2;ratioP2
15194;SDS011;7698;42.478;23.756;2023-11-21T00:00:33;5.00;;;3.72;;
15194;SDS011;7698;42.478;23.756;2023-11-21T00:02:59;3.42;;;2.90;;
15194;SDS011;7698;42.478;23.756;2023-11-21T00:05:27;3.17;;;2.85;;
15194;SDS011;7698;42.478;23.756;2023-11-21T00:07:53;4.00;;;3.13;;
15194;SDS011;7698;42.478;23.756;2023-11-21T00:10:20;3.10;;;2.72;;
15194;SDS011;7698;42.478;23.756;2023-11-21T00:12:47;4.00;;;3.60;;
15194;SDS011;7698;42.478;23.756;2023-11-21T00:15:13;3.88;;;3.47;;
15194;SDS011;7698;42.478;23.756;2023-11-21T00:17:41;3.45;;;3.13;;
15194;SDS011;7698;42.478;23.756;2023-11-21T00:20:09;3.60;;;3.20;;
15194;SDS011;7698;42.478;23.756;2023-11-21T00:22:37;3.65;;;2.92;;
15194;SDS011;7698;42.478;23.756;2023-11-21T00:25:05;3.58;;;3.22;;
15194;SDS011;7698;42.478;23.756;2023-11-21T00:27:34;3.03;;;2.58;;
15194;SDS011;7698;42.478;23.756;2023-11-21T00:30:00;3.97;;;3.40;;
15194;SDS011;7698;42.478;23.756;2023-11-21T00:32:29;4.82;;;4.15;;
15194;SDS011;7698;42.478;23.756;2023-11-21T00:34:57;3.85;;;3.50;;
15194;SDS011;7698;42.478;23.756;2023-11-21T00:37:24;3.25;;;2.90;;
15194;SDS011;7698;42.478;23.756;2023-11-21T00:39:51;3.80;;;3.40;;
15194;SDS011;7698;42.478;23.756;2023-11-21T00:42:17;4.78;;;3.55;;
15194;SDS011;7698;42.478;23.756;2023-11-21T00:44:44;3.00;;;2.67;;
15194;SDS011;7698;42.478;23.756;2023-11-21T00:47:10;3.05;;;2.78;;
15194;SDS011;7698;42.478;23.756;2023-11-21T00:49:37;3.22;;;2.70;;
15194;SDS011;7698;42.478;23.756;2023-11-21T00:52:06;3.75;;;2.83;;
15194;SDS011;7698;42.478;23.756;2023-11-21T00:54:32;3.40;;;2.65;;
15194;SDS011;7698;42.478;23.756;2023-11-21T00:56:59;2.95;;;2.75;;
15194;SDS011;7698;42.478;23.756;2023-11-21T00:59:26;5.00;;;3.30;;
15194;SDS011;7698;42.478;23.756;2023-11-21T01:01:52;5.68;;;5.00;;
15194;SDS011;7698;42.478;23.756;2023-11-21T01:04:19;5.28;;;4.78;;
15194;SDS011;7698;42.478;23.756;2023-11-21T01:06:46;4.68;;;4.18;;
15194;SDS011;7698;42.478;23.756;2023-11-21T01:09:14;5.22;;;4.70;;
15194;SDS011;7698;42.478;23.756;2023-11-21T01:11:43;4.60;;;4.20;;
15194;SDS011;7698;42.478;23.756;2023-11-21T01:14:10;5.03;;;4.03;;
15194;SDS011;7698;42.478;23.756;2023-11-21T01:16:38;3.95;;;2.95;;
15194;SDS011;7698;42.478;23.756;2023-11-21T01:19:05;4.18;;;3.20;;
15194;SDS011;7698;42.478;23.756;2023-11-21T01:21:31;3.90;;;3.28;;
15194;SDS011;7698;42.478;23.756;2023-11-21T01:23:59;4.18;;;3.55;;
15194;SDS011;7698;42.478;23.756;2023-11-21T01:26:26;2.38;;;2.05;;
15194;SDS011;7698;42.478;23.756;2023-11-21T01:28:53;2.55;;;2.35;;
15194;SDS011;7698;42.478;23.756;2023-11-21T01:31:19;2.25;;;2.05;;
15194;SDS011;7698;42.478;23.756;2023-11-21T01:33:46;2.33;;;2.10;;
15194;SDS011;7698;42.478;23.756;2023-11-21T01:36:13;2.80;;;2.60;;
15194;SDS011;7698;42.478;23.756;2023-11-21T01:38:40;2.40;;;2.20;;
15194;SDS011;7698;42.478;23.756;2023-11-21T01:41:07;2.65;;;2.30;;
15194;SDS011;7698;42.478;23.756;2023-11-21T01:43:37;2.97;;;2.38;;
15194;SDS011;7698;42.478;23.756;2023-11-21T01:46:04;3.00;;;2.70;;
15194;SDS011;7698;42.478;23.756;2023-11-21T01:48:31;5.07;;;3.45;;
15194;SDS011;7698;42.478;23.756;2023-11-21T01:50:58;3.78;;;3.40;;
15194;SDS011;7698;42.478;23.756;2023-11-21T01:53:25;4.40;;;4.00;;
15194;SDS011;7698;42.478;23.756;2023-11-21T01:55:52;4.15;;;3.75;;
15194;SDS011;7698;42.478;23.756;2023-11-21T01:58:19;4.20;;;3.85;;
15194;SDS011;7698;42.478;23.756;2023-11-21T02:00:48;4.82;;;4.20;;
15194;SDS011;7698;42.478;23.756;2023-11-21T02:03:16;4.28;;;3.88;;
15194;SDS011;7698;42.478;23.756;2023-11-21T02:05:42;3.28;;;2.92;;
15194;SDS011;7698;42.478;23.756;2023-11-21T02:08:09;3.58;;;3.28;;
15194;SDS011;7698;42.478;23.756;2023-11-21T02:10:36;3.55;;;3.25;;
15194;SDS011;7698;42.478;23.756;2023-11-21T02:13:02;3.35;;;3.05;;
15194;SDS011;7698;42.478;23.756;2023-11-21T02:15:29;3.25;;;2.72;;
15194;SDS011;7698;42.478;23.756;2023-11-21T02:17:57;3.40;;;3.10;;
15194;SDS011;7698;42.478;23.756;2023-11-21T02:20:24;2.38;;;2.17;;
15194;SDS011;7698;42.478;23.756;2023-11-21T02:22:53;3.72;;;2.50;;
15194;SDS011;7698;42.478;23.756;2023-11-21T02:25:23;3.30;;;2.10;;
15194;SDS011;7698;42.478;23.756;2023-11-21T02:27:49;2.60;;;2.40;;
15194;SDS011;7698;42.478;23.756;2023-11-21T02:30:16;2.55;;;1.95;;
15194;SDS011;7698;42.478;23.756;2023-11-21T02:32:43;1.73;;;1.63;;
15194;SDS011;7698;42.478;23.756;2023-11-21T02:35:11;1.48;;;1.38;;
15194;SDS011;7698;42.478;23.756;2023-11-21T02:37:37;2.20;;;1.70;;
15194;SDS011;7698;42.478;23.756;2023-11-21T02:40:08;2.13;;;1.85;;
15194;SDS011;7698;42.478;23.756;2023-11-21T02:42:35;2.15;;;1.95;;
15194;SDS011;7698;42.478;23.756;2023-11-21T02:45:01;2.03;;;1.83;;
15194;SDS011;7698;42.478;23.756;2023-11-21T02:47:28;2.28;;;2.08;;
15194;SDS011;7698;42.478;23.756;2023-11-21T02:49:55;3.35;;;3.05;;
15194;SDS011;7698;42.478;23.756;2023-11-21T02:52:21;2.50;;;2.30;;
15194;SDS011;7698;42.478;23.756;2023-11-21T02:54:48;2.95;;;2.75;;
15194;SDS011;7698;42.478;23.756;2023-11-21T02:57:16;3.15;;;2.85;;
15194;SDS011;7698;42.478;23.756;2023-11-21T02:59:43;2.42;;;2.22;;
15194;SDS011;7698;42.478;23.756;2023-11-21T03:02:10;2.60;;;2.40;;
15194;SDS011;7698;42.478;23.756;2023-11-21T03:04:36;3.00;;;2.70;;
15194;SDS011;7698;42.478;23.756;2023-11-21T03:07:03;3.13;;;2.83;;
15194;SDS011;7698;42.478;23.756;2023-11-21T03:09:30;2.95;;;2.60;;
15194;SDS011;7698;42.478;23.756;2023-11-21T03:11:57;3.17;;;2.88;;
15194;SDS011;7698;42.478;23.756;2023-11-21T03:14:24;2.63;;;2.42;;
15194;SDS011;7698;42.478;23.756;2023-11-21T03:16:51;2.55;;;2.35;;
15194;SDS011;7698;42.478;23.756;2023-11-21T03:19:17;2.70;;;2.15;;
15194;SDS011;7698;42.478;23.756;2023-11-21T03:21:44;2.35;;;2.05;;
15194;SDS011;7698;42.478;23.756;2023-11-21T03:24:10;2.13;;;1.75;;
15194;SDS011;7698;42.478;23.756;2023-11-21T03:26:37;2.47;;;1.83;;
15194;SDS011;7698;42.478;23.756;2023-11-21T03:29:03;2.42;;;2.22;;
15194;SDS011;7698;42.478;23.756;2023-11-21T03:31:31;2.63;;;2.30;;
15194;SDS011;7698;42.478;23.756;2023-11-21T03:33:58;2.58;;;2.10;;
15194;SDS011;7698;42.478;23.756;2023-11-21T03:36:24;3.00;;;2.10;;
15194;SDS011;7698;42.478;23.756;2023-11-21T03:38:51;5.38;;;3.10;;
15194;SDS011;7698;42.478;23.756;2023-11-21T03:41:17;5.43;;;4.00;;
15194;SDS011;7698;42.478;23.756;2023-11-21T03:43:44;9.93;;;5.43;;
15194;SDS011;7698;42.478;23.756;2023-11-21T03:46:10;6.70;;;4.05;;
15194;SDS011;7698;42.478;23.756;2023-11-21T03:48:38;5.53;;;4.60;;
15194;SDS011;7698;42.478;23.756;2023-11-21T03:51:05;8.13;;;4.70;;
15194;SDS011;7698;42.478;23.756;2023-11-21T03:53:32;6.25;;;4.40;;
15194;SDS011;7698;42.478;23.756;2023-11-21T03:55:58;5.38;;;4.30;;
15194;SDS011;7698;42.478;23.756;2023-11-21T03:58:26;4.90;;;4.40;;
15194;SDS011;7698;42.478;23.756;2023-11-21T04:00:53;5.30;;;4.32;;
15194;SDS011;7698;42.478;23.756;2023-11-21T04:03:19;6.82;;;5.57;;
15194;SDS011;7698;42.478;23.756;2023-11-21T04:05:47;5.40;;;4.90;;
15194;SDS011;7698;42.478;23.756;2023-11-21T04:08:14;5.93;;;4.55;;
15194;SDS011;7698;42.478;23.756;2023-11-21T04:10:40;5.00;;;4.22;;
15194;SDS011;7698;42.478;23.756;2023-11-21T04:13:07;3.58;;;3.28;;
15194;SDS011;7698;42.478;23.756;2023-11-21T04:15:33;3.97;;;3.63;;
15194;SDS011;7698;42.478;23.756;2023-11-21T04:18:00;3.75;;;3.42;;
15194;SDS011;7698;42.478;23.756;2023-11-21T04:20:26;4.78;;;4.32;;
15194;SDS011;7698;42.478;23.756;2023-11-21T04:22:54;4.78;;;3.90;;
15194;SDS011;7698;42.478;23.756;2023-11-21T04:25:21;4.13;;;3.33;;
15194;SDS011;7698;42.478;23.756;2023-11-21T04:27:48;3.45;;;3.03;;
15194;SDS011;7698;42.478;23.756;2023-11-21T04:30:15;4.45;;;4.03;;
15194;SDS011;7698;42.478;23.756;2023-11-21T04:32:41;5.35;;;4.50;;
15194;SDS011;7698;42.478;23.756;2023-11-21T04:35:08;3.80;;;3.50;;
15194;SDS011;7698;42.478;23.756;2023-11-21T04:37:35;3.72;;;3.30;;
15194;SDS011;7698;42.478;23.756;2023-11-21T04:40:04;3.35;;;3.05;;
15194;SDS011;7698;42.478;23.756;2023-11-21T04:42:32;3.85;;;3.10;;
15194;SDS011;7698;42.478;23.756;2023-11-21T04:44:59;4.13;;;3.53;;
15194;SDS011;7698;42.478;23.756;2023-11-21T04:47:26;9.38;;;6.40;;
15194;SDS011;7698;42.478;23.756;2023-11-21T04:49:54;14.43;;;9.93;;
15194;SDS011;7698;42.478;23.756;2023-11-21T04:52:20;17.27;;;11.77;;
15194;SDS011;7698;42.478;23.756;2023-11-21T04:54:47;12.88;;;10.35;;
15194;SDS011;7698;42.478;23.756;2023-11-21T04:57:15;16.60;;;11.07;;
15194;SDS011;7698;42.478;23.756;2023-11-21T04:59:43;12.75;;;10.30;;
15194;SDS011;7698;42.478;23.756;2023-11-21T05:02:09;11.30;;;9.73;;
15194;SDS011;7698;42.478;23.756;2023-11-21T05:04:36;7.45;;;6.75;;
15194;SDS011;7698;42.478;23.756;2023-11-21T05:07:02;5.63;;;5.13;;
15194;SDS011;7698;42.478;23.756;2023-11-21T05:09:29;4.90;;;4.30;;
15194;SDS011;7698;42.478;23.756;2023-11-21T05:11:57;4.03;;;3.63;;
15194;SDS011;7698;42.478;23.756;2023-11-21T05:14:25;3.35;;;3.05;;
15194;SDS011;7698;42.478;23.756;2023-11-21T05:16:52;3.50;;;3.20;;
15194;SDS011;7698;42.478;23.756;2023-11-21T05:19:18;3.67;;;3.38;;
15194;SDS011;7698;42.478;23.756;2023-11-21T05:21:46;3.20;;;2.90;;
15194;SDS011;7698;42.478;23.756;2023-11-21T05:24:12;3.22;;;2.90;;
15194;SDS011;7698;42.478;23.756;2023-11-21T05:26:39;3.03;;;2.83;;
15194;SDS011;7698;42.478;23.756;2023-11-21T05:29:05;3.60;;;3.08;;
15194;SDS011;7698;42.478;23.756;2023-11-21T05:31:35;3.00;;;2.53;;
15194;SDS011;7698;42.478;23.756;2023-11-21T05:34:01;2.20;;;2.00;;
15194;SDS011;7698;42.478;23.756;2023-11-21T05:36:28;2.95;;;2.60;;
15194;SDS011;7698;42.478;23.756;2023-11-21T05:38:54;3.30;;;2.40;;
15194;SDS011;7698;42.478;23.756;2023-11-21T05:41:21;4.30;;;3.90;;
15194;SDS011;7698;42.478;23.756;2023-11-21T05:43:48;4.78;;;3.50;;
15194;SDS011;7698;42.478;23.756;2023-11-21T05:46:15;5.18;;;4.07;;
15194;SDS011;7698;42.478;23.756;2023-11-21T05:48:43;9.23;;;7.30;;
15194;SDS011;7698;42.478;23.756;2023-11-21T05:51:10;7.47;;;6.78;;
15194;SDS011;7698;42.478;23.756;2023-11-21T05:53:39;9.30;;;8.35;;
15194;SDS011;7698;42.478;23.756;2023-11-21T05:56:06;6.75;;;6.00;;
15194;SDS011;7698;42.478;23.756;2023-11-21T05:58:32;6.97;;;5.40;;
15194;SDS011;7698;42.478;23.756;2023-11-21T06:00:59;11.68;;;8.77;;
15194;SDS011;7698;42.478;23.756;2023-11-21T06:03:26;10.00;;;8.98;;
15194;SDS011;7698;42.478;23.756;2023-11-21T06:05:54;12.68;;;8.57;;
15194;SDS011;7698;42.478;23.756;2023-11-21T06:08:21;10.40;;;8.30;;
15194;SDS011;7698;42.478;23.756;2023-11-21T06:10:47;7.75;;;7.05;;
15194;SDS011;7698;42.478;23.756;2023-11-21T06:13:14;6.88;;;5.93;;
15194;SDS011;7698;42.478;23.756;2023-11-21T06:15:41;8.15;;;7.25;;
15194;SDS011;7698;42.478;23.756;2023-11-21T06:18:07;10.52;;;8.20;;
15194;SDS011;7698;42.478;23.756;2023-11-21T06:20:35;8.60;;;6.57;;
15194;SDS011;7698;42.478;23.756;2023-11-21T06:23:04;7.28;;;5.22;;
15194;SDS011;7698;42.478;23.756;2023-11-21T06:25:30;9.13;;;5.78;;
15194;SDS011;7698;42.478;23.756;2023-11-21T06:27:58;6.35;;;5.75;;
15194;SDS011;7698;42.478;23.756;2023-11-21T06:30:25;5.88;;;5.03;;
15194;SDS011;7698;42.478;23.756;2023-11-21T06:32:51;8.52;;;5.45;;
15194;SDS011;7698;42.478;23.756;2023-11-21T06:35:18;8.30;;;5.47;;
15194;SDS011;7698;42.478;23.756;2023-11-21T06:37:45;7.72;;;6.25;;
15194;SDS011;7698;42.478;23.756;2023-11-21T06:40:14;8.55;;;5.97;;
15194;SDS011;7698;42.478;23.756;2023-11-21T06:42:41;7.07;;;5.97;;
15194;SDS011;7698;42.478;23.756;2023-11-21T06:45:09;7.80;;;6.15;;
15194;SDS011;7698;42.478;23.756;2023-11-21T06:47:36;6.30;;;5.70;;
15194;SDS011;7698;42.478;23.756;2023-11-21T06:50:03;9.15;;;6.75;;
15194;SDS011;7698;42.478;23.756;2023-11-21T06:52:31;8.60;;;7.20;;
15194;SDS011;7698;42.478;23.756;2023-11-21T06:54:58;8.23;;;7.28;;
15194;SDS011;7698;42.478;23.756;2023-11-21T06:57:26;6.75;;;5.30;;
15194;SDS011;7698;42.478;23.756;2023-11-21T06:59:52;5.00;;;4.50;;
15194;SDS011;7698;42.478;23.756;2023-11-21T07:02:19;5.35;;;4.57;;
15194;SDS011;7698;42.478;23.756;2023-11-21T07:04:46;3.67;;;3.38;;
15194;SDS011;7698;42.478;23.756;2023-11-21T07:07:12;3.53;;;3.22;;
15194;SDS011;7698;42.478;23.756;2023-11-21T07:09:39;3.63;;;3.13;;
15194;SDS011;7698;42.478;23.756;2023-11-21T07:12:06;2.78;;;2.30;;
15194;SDS011;7698;42.478;23.756;2023-11-21T07:14:34;3.55;;;2.80;;
15194;SDS011;7698;42.478;23.756;2023-11-21T07:17:01;3.15;;;2.60;;
15194;SDS011;7698;42.478;23.756;2023-11-21T07:19:27;3.17;;;2.88;;
15194;SDS011;7698;42.478;23.756;2023-11-21T07:21:54;4.13;;;2.92;;
15194;SDS011;7698;42.478;23.756;2023-11-21T07:24:21;4.28;;;3.20;;
15194;SDS011;7698;42.478;23.756;2023-11-21T07:26:48;3.72;;;3.10;;
15194;SDS011;7698;42.478;23.756;2023-11-21T07:29:14;3.58;;;3.05;;
15194;SDS011;7698;42.478;23.756;2023-11-21T07:31:42;3.80;;;3.40;;
15194;SDS011;7698;42.478;23.756;2023-11-21T07:34:09;4.15;;;3.10;;
15194;SDS011;7698;42.478;23.756;2023-11-21T07:36:37;2.45;;;2.25;;
15194;SDS011;7698;42.478;23.756;2023-11-21T07:39:03;2.55;;;2.35;;
15194;SDS011;7698;42.478;23.756;2023-11-21T07:41:31;3.17;;;2.88;;
15194;SDS011;7698;42.478;23.756;2023-11-21T07:43:58;3.78;;;3.20;;
15194;SDS011;7698;42.478;23.756;2023-11-21T07:46:25;2.92;;;2.45;;
15194;SDS011;7698;42.478;23.756;2023-11-21T07:48:54;3.10;;;2.80;;
15194;SDS011;7698;42.478;23.756;2023-11-21T07:51:20;4.43;;;2.90;;
15194;SDS011;7698;42.478;23.756;2023-11-21T07:53:47;3.85;;;3.05;;
15194;SDS011;7698;42.478;23.756;2023-11-21T07:56:14;4.95;;;4.43;;
15194;SDS011;7698;42.478;23.756;2023-11-21T07:58:40;3.92;;;3.55;;
15194;SDS011;7698;42.478;23.756;2023-11-21T08:01:07;4.07;;;3.67;;
15194;SDS011;7698;42.478;23.756;2023-11-21T08:03:34;4.00;;;3.47;;
15194;SDS011;7698;42.478;23.756;2023-11-21T08:06:02;4.03;;;3.63;;
15194;SDS011;7698;42.478;23.756;2023-11-21T08:08:30;4.70;;;3.78;;
15194;SDS011;7698;42.478;23.756;2023-11-21T08:10:57;4.57;;;3.42;;
15194;SDS011;7698;42.478;23.756;2023-11-21T08:13:25;4.25;;;3.65;;
15194;SDS011;7698;42.478;23.756;2023-11-21T08:15:53;4.18;;;3.75;;
15194;SDS011;7698;42.478;23.756;2023-11-21T08:18:21;3.35;;;3.05;;
15194;SDS011;7698;42.478;23.756;2023-11-21T08:20:47;3.28;;;2.30;;
15194;SDS011;7698;42.478;23.756;2023-11-21T08:23:15;3.03;;;2.50;;
15194;SDS011;7698;42.478;23.756;2023-11-21T08:25:42;3.50;;;2.60;;
15194;SDS011;7698;42.478;23.756;2023-11-21T08:28:09;4.10;;;2.40;;
15194;SDS011;7698;42.478;23.756;2023-11-21T08:30:36;2.90;;;2.60;;
15194;SDS011;7698;42.478;23.756;2023-11-21T08:33:02;2.38;;;2.17;;
15194;SDS011;7698;42.478;23.756;2023-11-21T08:35:29;3.70;;;3.00;;
15194;SDS011;7698;42.478;23.756;2023-11-21T08:37:56;3.35;;;2.83;;
15194;SDS011;7698;42.478;23.756;2023-11-21T08:40:24;2.53;;;2.30;;
15194;SDS011;7698;42.478;23.756;2023-11-21T08:42:50;3.30;;;2.30;;
15194;SDS011;7698;42.478;23.756;2023-11-21T08:45:17;3.92;;;2.30;;
15194;SDS011;7698;42.478;23.756;2023-11-21T08:47:44;3.13;;;2.83;;
15194;SDS011;7698;42.478;23.756;2023-11-21T08:50:10;2.67;;;2.33;;
15194;SDS011;7698;42.478;23.756;2023-11-21T08:52:37;3.33;;;2.60;;
15194;SDS011;7698;42.478;23.756;2023-11-21T08:55:04;2.47;;;2.28;;
15194;SDS011;7698;42.478;23.756;2023-11-21T08:57:34;2.50;;;2.30;;
15194;SDS011;7698;42.478;23.756;2023-11-21T09:00:01;2.78;;;2.47;;
15194;SDS011;7698;42.478;23.756;2023-11-21T09:02:28;1.92;;;1.77;;
15194;SDS011;7698;42.478;23.756;2023-11-21T09:04:54;2.42;;;2.22;;
15194;SDS011;7698;42.478;23.756;2023-11-21T09:07:21;2.15;;;1.95;;
15194;SDS011;7698;42.478;23.756;2023-11-21T09:09:47;1.88;;;1.55;;
15194;SDS011;7698;42.478;23.756;2023-11-21T09:12:14;2.88;;;1.80;;
15194;SDS011;7698;42.478;23.756;2023-11-21T09:14:42;4.15;;;2.30;;
15194;SDS011;7698;42.478;23.756;2023-11-21T09:17:09;2.70;;;2.20;;
15194;SDS011;7698;42.478;23.756;2023-11-21T09:19:37;3.20;;;2.90;;
15194;SDS011;7698;42.478;23.756;2023-11-21T09:22:03;3.08;;;2.78;;
15194;SDS011;7698;42.478;23.756;2023-11-21T09:24:30;3.13;;;2.20;;
15194;SDS011;7698;42.478;23.756;2023-11-21T09:26:57;2.63;;;2.28;;
15194;SDS011;7698;42.478;23.756;2023-11-21T09:29:25;3.63;;;3.25;;
15194;SDS011;7698;42.478;23.756;2023-11-21T09:31:53;2.45;;;2.22;;
15194;SDS011;7698;42.478;23.756;2023-11-21T09:34:20;2.50;;;2.22;;
15194;SDS011;7698;42.478;23.756;2023-11-21T09:36:46;2.83;;;1.90;;
15194;SDS011;7698;42.478;23.756;2023-11-21T09:39:13;4.43;;;2.30;;
15194;SDS011;7698;42.478;23.756;2023-11-21T09:41:41;2.40;;;2.20;;
15194;SDS011;7698;42.478;23.756;2023-11-21T09:44:11;2.53;;;2.03;;
15194;SDS011;7698;42.478;23.756;2023-11-21T09:46:39;2.63;;;2.22;;
15194;SDS011;7698;42.478;23.756;2023-11-21T09:49:08;2.42;;;2.00;;
15194;SDS011;7698;42.478;23.756;2023-11-21T09:51:37;2.10;;;1.90;;
15194;SDS011;7698;42.478;23.756;2023-11-21T09:54:06;2.40;;;2.00;;
15194;SDS011;7698;42.478;23.756;2023-11-21T09:56:34;3.03;;;2.35;;
15194;SDS011;7698;42.478;23.756;2023-11-21T09:59:01;1.73;;;1.60;;
15194;SDS011;7698;42.478;23.756;2023-11-21T10:01:32;3.15;;;1.58;;
15194;SDS011;7698;42.478;23.756;2023-11-21T10:03:59;3.05;;;1.63;;
15194;SDS011;7698;42.478;23.756;2023-11-21T10:06:27;1.40;;;1.30;;
15194;SDS011;7698;42.478;23.756;2023-11-21T10:08:55;1.95;;;1.23;;
15194;SDS011;7698;42.478;23.756;2023-11-21T10:11:22;2.22;;;1.50;;
15194;SDS011;7698;42.478;23.756;2023-11-21T10:13:52;1.58;;;1.48;;
15194;SDS011;7698;42.478;23.756;2023-11-21T10:16:19;1.63;;;1.52;;
15194;SDS011;7698;42.478;23.756;2023-11-21T10:18:46;1.58;;;1.45;;
15194;SDS011;7698;42.478;23.756;2023-11-21T10:21:13;2.33;;;1.60;;
15194;SDS011;7698;42.478;23.756;2023-11-21T10:23:41;1.85;;;1.30;;
15194;SDS011;7698;42.478;23.756;2023-11-21T10:26:08;2.40;;;1.38;;
15194;SDS011;7698;42.478;23.756;2023-11-21T10:28:36;1.52;;;1.38;;
15194;SDS011;7698;42.478;23.756;2023-11-21T10:31:06;1.80;;;1.60;;
15194;SDS011;7698;42.478;23.756;2023-11-21T10:33:32;3.22;;;1.83;;
15194;SDS011;7698;42.478;23.756;2023-11-21T10:35:59;1.50;;;1.40;;
15194;SDS011;7698;42.478;23.756;2023-11-21T10:38:26;2.47;;;2.03;;
15194;SDS011;7698;42.478;23.756;2023-11-21T10:40:56;3.38;;;2.83;;
15194;SDS011;7698;42.478;23.756;2023-11-21T10:43:24;3.72;;;3.25;;
15194;SDS011;7698;42.478;23.756;2023-11-21T10:45:51;2.80;;;2.47;;
15194;SDS011;7698;42.478;23.756;2023-11-21T10:48:17;3.25;;;2.95;;
15194;SDS011;7698;42.478;23.756;2023-11-21T10:50:44;2.50;;;2.30;;
15194;SDS011;7698;42.478;23.756;2023-11-21T10:53:11;3.33;;;2.60;;
15194;SDS011;7698;42.478;23.756;2023-11-21T10:55:38;4.38;;;3.15;;
15194;SDS011;7698;42.478;23.756;2023-11-21T10:58:06;5.22;;;3.45;;
15194;SDS011;7698;42.478;23.756;2023-11-21T11:00:35;4.88;;;3.67;;
15194;SDS011;7698;42.478;23.756;2023-11-21T11:03:02;4.30;;;3.90;;
15194;SDS011;7698;42.478;23.756;2023-11-21T11:05:29;4.57;;;3.88;;
15194;SDS011;7698;42.478;23.756;2023-11-21T11:07:58;2.35;;;2.15;;
15194;SDS011;7698;42.478;23.756;2023-11-21T11:10:26;1.38;;;1.27;;
15194;SDS011;7698;42.478;23.756;2023-11-21T11:12:54;1.70;;;1.60;;
15194;SDS011;7698;42.478;23.756;2023-11-21T11:15:23;3.35;;;3.03;;
15194;SDS011;7698;42.478;23.756;2023-11-21T11:17:50;2.63;;;2.28;;
15194;SDS011;7698;42.478;23.756;2023-11-21T11:20:17;2.55;;;2.20;;
15194;SDS011;7698;42.478;23.756;2023-11-21T11:22:48;1.60;;;1.50;;
15194;SDS011;7698;42.478;23.756;2023-11-21T11:25:29;1.55;;;1.45;;
15194;SDS011;7698;42.478;23.756;2023-11-21T11:27:59;1.77;;;1.60;;
15194;SDS011;7698;42.478;23.756;2023-11-21T11:30:32;1.55;;;1.45;;
15194;SDS011;7698;42.478;23.756;2023-11-21T11:33:06;2.75;;;1.67;;
15194;SDS011;7698;42.478;23.756;2023-11-21T11:35:38;1.27;;;1.10;;
15194;SDS011;7698;42.478;23.756;2023-11-21T11:38:07;1.08;;;0.88;;
15194;SDS011;7698;42.478;23.756;2023-11-21T11:40:39;0.98;;;0.52;;
15194;SDS011;7698;42.478;23.756;2023-11-21T11:43:07;0.40;;;0.40;;
15194;SDS011;7698;42.478;23.756;2023-11-21T11:45:35;0.60;;;0.50;;
15194;SDS011;7698;42.478;23.756;2023-11-21T11:48:06;0.45;;;0.43;;
15194;SDS011;7698;42.478;23.756;2023-11-21T11:50:32;0.40;;;0.40;;
15194;SDS011;7698;42.478;23.756;2023-11-21T11:53:11;0.85;;;0.60;;
15194;SDS011;7698;42.478;23.756;2023-11-21T11:55:38;0.60;;;0.60;;
15194;SDS011;7698;42.478;23.756;2023-11-21T11:58:05;2.28;;;0.60;;
15194;SDS011;7698;42.478;23.756;2023-11-21T12:00:34;1.15;;;0.60;;
15194;SDS011;7698;42.478;23.756;2023-11-21T12:03:03;0.93;;;0.80;;
15194;SDS011;7698;42.478;23.756;2023-11-21T12:05:30;1.85;;;0.93;;
15194;SDS011;7698;42.478;23.756;2023-11-21T12:08:01;1.25;;;0.75;;
15194;SDS011;7698;42.478;23.756;2023-11-21T12:10:29;1.10;;;0.70;;
15194;SDS011;7698;42.478;23.756;2023-11-21T12:12:56;0.40;;;0.40;;
15194;SDS011;7698;42.478;23.756;2023-11-21T12:15:23;0.50;;;0.50;;
15194;SDS011;7698;42.478;23.756;2023-11-21T12:17:52;1.23;;;0.60;;
15194;SDS011;7698;42.478;23.756;2023-11-21T12:20:19;0.70;;;0.50;;
15194;SDS011;7698;42.478;23.756;2023-11-21T12:22:46;0.60;;;0.50;;
15194;SDS011;7698;42.478;23.756;2023-11-21T12:25:14;0.50;;;0.50;;
15194;SDS011;7698;42.478;23.756;2023-11-21T12:27:44;0.52;;;0.50;;
15194;SDS011;7698;42.478;23.756;2023-11-21T12:30:12;0.93;;;0.50;;
15194;SDS011;7698;42.478;23.756;2023-11-21T12:32:41;1.13;;;0.70;;
15194;SDS011;7698;42.478;23.756;2023-11-21T12:35:09;1.65;;;0.60;;
15194;SDS011;7698;42.478;23.756;2023-11-21T12:37:37;0.93;;;0.85;;
15194;SDS011;7698;42.478;23.756;2023-11-21T12:40:04;0.68;;;0.68;;
15194;SDS011;7698;42.478;23.756;2023-11-21T12:42:32;0.55;;;0.45;;
15194;SDS011;7698;42.478;23.756;2023-11-21T12:45:08;1.23;;;0.95;;
15194;SDS011;7698;42.478;23.756;2023-11-21T12:47:39;2.20;;;1.10;;
15194;SDS011;7698;42.478;23.756;2023-11-21T12:50:06;1.00;;;0.90;;
15194;SDS011;7698;42.478;23.756;2023-11-21T12:52:40;0.77;;;0.77;;
15194;SDS011;7698;42.478;23.756;2023-11-21T12:55:08;1.85;;;1.20;;
15194;SDS011;7698;42.478;23.756;2023-11-21T12:57:35;1.60;;;0.82;;
15194;SDS011;7698;42.478;23.756;2023-11-21T13:00:03;1.52;;;1.10;;
15194;SDS011;7698;42.478;23.756;2023-11-21T13:02:36;1.10;;;0.82;;
15194;SDS011;7698;42.478;23.756;2023-11-21T13:05:03;1.25;;;1.00;;
15194;SDS011;7698;42.478;23.756;2023-11-21T13:07:42;0.93;;;0.88;;
15194;SDS011;7698;42.478;23.756;2023-11-21T13:10:12;1.10;;;1.00;;
15194;SDS011;7698;42.478;23.756;2023-11-21T13:12:42;1.48;;;1.10;;
15194;SDS011;7698;42.478;23.756;2023-11-21T13:15:09;0.95;;;0.90;;
15194;SDS011;7698;42.478;23.756;2023-11-21T13:17:36;1.10;;;0.95;;
15194;SDS011;7698;42.478;23.756;2023-11-21T13:20:03;0.90;;;0.85;;
15194;SDS011;7698;42.478;23.756;2023-11-21T13:22:33;1.80;;;1.45;;
15194;SDS011;7698;42.478;23.756;2023-11-21T13:25:02;1.63;;;1.10;;
15194;SDS011;7698;42.478;23.756;2023-11-21T13:27:32;1.25;;;1.17;;
15194;SDS011;7698;42.478;23.756;2023-11-21T13:29:59;1.85;;;1.67;;
15194;SDS011;7698;42.478;23.756;2023-11-21T13:32:26;2.90;;;1.83;;
15194;SDS011;7698;42.478;23.756;2023-11-21T13:34:52;2.25;;;1.80;;
15194;SDS011;7698;42.478;23.756;2023-11-21T13:37:19;1.50;;;1.30;;
15194;SDS011;7698;42.478;23.756;2023-11-21T13:39:47;1.48;;;1.23;;
15194;SDS011;7698;42.478;23.756;2023-11-21T13:42:16;1.45;;;1.10;;
15194;SDS011;7698;42.478;23.756;2023-11-21T13:44:43;3.63;;;1.80;;
15194;SDS011;7698;42.478;23.756;2023-11-21T13:47:13;1.83;;;1.38;;
15194;SDS011;7698;42.478;23.756;2023-11-21T13:49:39;0.88;;;0.85;;
15194;SDS011;7698;42.478;23.756;2023-11-21T13:52:07;0.68;;;0.68;;
15194;SDS011;7698;42.478;23.756;2023-11-21T13:54:36;1.75;;;0.85;;
15194;SDS011;7698;42.478;23.756;2023-11-21T13:57:03;1.35;;;1.25;;
15194;SDS011;7698;42.478;23.756;2023-11-21T13:59:32;1.05;;;0.95;;
15194;SDS011;7698;42.478;23.756;2023-11-21T14:01:58;2.03;;;1.77;;
15194;SDS011;7698;42.478;23.756;2023-11-21T14:04:37;1.83;;;1.67;;
15194;SDS011;7698;42.478;23.756;2023-11-21T14:07:21;2.53;;;1.60;;
15194;SDS011;7698;42.478;23.756;2023-11-21T14:09:55;2.08;;;1.40;;
15194;SDS011;7698;42.478;23.756;2023-11-21T14:12:23;1.33;;;1.10;;
15194;SDS011;7698;42.478;23.756;2023-11-21T14:14:51;1.40;;;1.20;;
15194;SDS011;7698;42.478;23.756;2023-11-21T14:17:20;1.65;;;1.23;;
15194;SDS011;7698;42.478;23.756;2023-11-21T14:19:47;1.08;;;0.98;;
15194;SDS011;7698;42.478;23.756;2023-11-21T14:22:14;1.60;;;1.10;;
15194;SDS011;7698;42.478;23.756;2023-11-21T14:24:42;1.35;;;1.10;;
15194;SDS011;7698;42.478;23.756;2023-11-21T14:27:11;2.65;;;1.20;;
15194;SDS011;7698;42.478;23.756;2023-11-21T14:29:38;1.23;;;1.13;;
15194;SDS011;7698;42.478;23.756;2023-11-21T14:32:10;1.45;;;1.05;;
15194;SDS011;7698;42.478;23.756;2023-11-21T14:34:36;1.20;;;1.10;;
15194;SDS011;7698;42.478;23.756;2023-11-21T14:37:03;1.98;;;1.48;;
15194;SDS011;7698;42.478;23.756;2023-11-21T14:39:30;1.45;;;1.27;;
15194;SDS011;7698;42.478;23.756;2023-11-21T14:42:00;1.63;;;1.45;;
15194;SDS011;7698;42.478;23.756;2023-11-21T14:44:28;2.17;;;1.90;;
15194;SDS011;7698;42.478;23.756;2023-11-21T14:46:58;1.30;;;1.20;;
15194;SDS011;7698;42.478;23.756;2023-11-21T14:49:27;0.95;;;0.95;;